Time;durP1;ratioP1;P1;durP2;ratioP2;P2;SDS_P1;SDS_P2;PMS_P1;PMS_P2;Temp;Humidity;BMP_temperature;BMP_pressure;BME280_temperature;BME280_humidity;BME280_pressure;Samples;Min_cycle;Max_cycle;Signal;HPM_P1;HPM_P2
2021/11/13 00:01:02;;;;;;;23.57;14.13;;;;;;;4.74;84.50;100479.59;5024340;28;20207;-72
2021/11/13 00:03:29;;;;;;;26.13;15.00;;;;;;;4.76;84.42;100483.91;5020978;28;20230;-73
2021/11/13 00:05:55;;;;;;;24.13;14.83;;;;;;;4.78;84.19;100478.56;5018993;28;20229;-72
2021/11/13 00:08:23;;;;;;;23.90;14.20;;;;;;;4.79;83.96;100473.22;5021470;28;20210;-73
2021/11/13 00:10:50;;;;;;;23.17;14.33;;;;;;;4.80;83.86;100477.56;5021205;28;20209;-73
2021/11/13 00:13:16;;;;;;;26.97;15.07;;;;;;;4.83;83.50;100472.19;5019905;28;20199;-72
2021/11/13 00:15:43;;;;;;;26.80;15.03;;;;;;;4.82;83.94;100469.59;5019996;28;20218;-72
2021/11/13 00:18:10;;;;;;;23.57;15.33;;;;;;;4.82;83.45;100465.19;5024870;28;20198;-72
2021/11/13 00:20:37;;;;;;;21.70;13.83;;;;;;;4.81;83.30;100455.53;5020922;28;20667;-74
2021/11/13 00:23:04;;;;;;;25.53;14.53;;;;;;;4.79;83.26;100460.03;5021454;28;20730;-72
2021/11/13 00:25:32;;;;;;;26.57;15.57;;;;;;;4.79;83.76;100462.66;5022772;28;20213;-72
2021/11/13 00:27:59;;;;;;;24.73;15.70;;;;;;;4.76;83.39;100467.22;5023609;28;20198;-72
2021/11/13 00:30:25;;;;;;;26.83;16.80;;;;;;;4.72;82.96;100463.84;5024325;28;20210;-76
2021/11/13 00:32:52;;;;;;;27.70;15.97;;;;;;;4.71;83.24;100477.94;5021062;28;20198;-72
2021/11/13 00:35:19;;;;;;;24.53;15.67;;;;;;;4.69;83.38;100471.88;5025993;28;20206;-72
2021/11/13 00:37:46;;;;;;;23.13;13.63;;;;;;;4.71;83.18;100472.66;5018055;28;20218;-76
2021/11/13 00:40:15;;;;;;;19.60;13.67;;;;;;;4.72;82.83;100477.03;5025867;28;20577;-72
2021/11/13 00:42:43;;;;;;;17.80;12.13;;;;;;;4.75;83.30;100478.69;5027068;28;20203;-72
2021/11/13 00:45:11;;;;;;;21.47;12.80;;;;;;;4.76;83.17;100469.84;5025230;28;20482;-72
2021/11/13 00:47:37;;;;;;;17.90;11.33;;;;;;;4.80;82.77;100479.34;5022031;28;20230;-72
2021/11/13 00:50:06;;;;;;;23.20;13.10;;;;;;;4.80;82.64;100472.31;5021696;28;20202;-72
2021/11/13 00:52:33;;;;;;;21.03;13.70;;;;;;;4.80;82.47;100480.22;5020294;28;20210;-73
2021/11/13 00:55:00;;;;;;;23.03;13.10;;;;;;;4.83;82.22;100481.88;5015803;28;20230;-72
2021/11/13 00:57:26;;;;;;;18.80;12.17;;;;;;;4.82;82.46;100475.72;5025056;28;20599;-72
2021/11/13 00:59:54;;;;;;;19.13;11.50;;;;;;;4.82;82.31;100475.72;5026326;28;20210;-72
2021/11/13 01:02:21;;;;;;;20.20;12.90;;;;;;;4.82;81.91;100475.72;5021846;28;20222;-72
2021/11/13 01:04:47;;;;;;;21.43;13.03;;;;;;;4.82;82.33;100480.16;5019624;28;20249;-72
2021/11/13 01:07:13;;;;;;;20.23;13.67;;;;;;;4.81;82.06;100470.50;5015138;28;20314;-73
2021/11/13 01:09:40;;;;;;;20.03;12.87;;;;;;;4.79;82.43;100467.94;5020819;28;20571;-72
2021/11/13 01:12:07;;;;;;;17.63;11.30;;;;;;;4.81;82.33;100455.53;5021642;28;20636;-72
2021/11/13 01:14:39;;;;;;;21.13;13.07;;;;;;;4.84;82.10;100462.44;5025204;28;20213;-74
2021/11/13 01:17:08;;;;;;;20.60;11.67;;;;;;;4.85;81.97;100454.47;5023669;28;20234;-73
2021/11/13 01:19:35;;;;;;;21.17;13.03;;;;;;;4.85;81.95;100459.75;5013034;28;20217;-72
2021/11/13 01:22:01;;;;;;;21.10;13.13;;;;;;;4.85;81.86;100456.25;5024025;28;20202;-73
2021/11/13 01:24:28;;;;;;;20.73;14.10;;;;;;;4.83;81.87;100466.91;5020642;28;20243;-72
2021/11/13 01:26:54;;;;;;;22.43;13.77;;;;;;;4.83;82.07;100468.69;5013784;28;20230;-72
2021/11/13 01:29:21;;;;;;;21.77;14.07;;;;;;;4.83;81.97;100471.31;5019965;28;20215;-73
2021/11/13 01:31:48;;;;;;;22.23;13.17;;;;;;;4.83;81.84;100469.53;5014776;28;20207;-72
2021/11/13 01:34:15;;;;;;;19.87;13.30;;;;;;;4.82;81.93;100470.47;5015167;28;20207;-72
2021/11/13 01:36:42;;;;;;;22.30;13.57;;;;;;;4.83;81.50;100468.69;5014508;28;20227;-72
2021/11/13 01:39:09;;;;;;;19.13;12.53;;;;;;;4.83;81.72;100466.91;5014911;28;20211;-72
2021/11/13 01:41:36;;;;;;;21.07;12.70;;;;;;;4.85;81.59;100469.44;5012451;28;20679;-72
2021/11/13 01:44:06;;;;;;;16.73;12.00;;;;;;;4.82;81.62;100462.53;5015729;28;20237;-72
2021/11/13 01:46:32;;;;;;;21.77;13.47;;;;;;;4.83;81.54;100455.47;5022173;28;20521;-72
2021/11/13 01:48:59;;;;;;;21.43;12.67;;;;;;;4.85;81.64;100456.25;5019331;28;20198;-72
2021/11/13 01:51:31;;;;;;;21.70;12.97;;;;;;;4.82;81.14;100459.91;5018373;28;20203;-72
2021/11/13 01:54:04;;;;;;;18.03;12.03;;;;;;;4.80;81.13;100458.25;5015523;28;20203;-70
2021/11/13 01:56:32;;;;;;;18.07;11.33;;;;;;;4.83;80.94;100458.97;5022482;28;20230;-72
2021/11/13 01:59:00;;;;;;;19.33;11.77;;;;;;;4.82;81.38;100456.41;5020051;28;20210;-72
2021/11/13 02:01:27;;;;;;;19.00;12.10;;;;;;;4.82;81.00;100452.00;5023599;28;20371;-74
2021/11/13 02:03:54;;;;;;;18.40;12.13;;;;;;;4.83;81.16;100453.69;5028242;28;20223;-72
2021/11/13 02:06:21;;;;;;;18.90;12.43;;;;;;;4.84;80.87;100457.16;5025029;28;20726;-72
2021/11/13 02:08:50;;;;;;;16.07;11.67;;;;;;;4.84;81.16;100450.09;5025516;28;21076;-71
2021/11/13 02:11:19;;;;;;;16.20;10.37;;;;;;;4.88;81.16;100451.69;5026135;28;20198;-72
2021/11/13 02:13:45;;;;;;;15.93;9.97;;;;;;;4.92;80.74;100444.53;5025724;28;20199;-72
2021/11/13 02:16:12;;;;;;;20.23;11.40;;;;;;;4.94;80.95;100433.91;5023523;28;20625;-72
2021/11/13 02:18:41;;;;;;;15.10;10.57;;;;;;;4.95;80.67;100441.75;5016823;28;20211;-71
2021/11/13 02:21:09;;;;;;;18.63;11.57;;;;;;;4.97;80.82;100437.25;5020273;28;20211;-72
2021/11/13 02:23:37;;;;;;;16.70;11.17;;;;;;;4.97;80.87;100432.00;5023732;28;20307;-72
2021/11/13 02:26:04;;;;;;;16.03;11.17;;;;;;;5.02;80.68;100431.75;5023991;28;20234;-70
2021/11/13 02:28:35;;;;;;;17.03;9.87;;;;;;;5.06;80.71;100434.22;5021285;28;20206;-72
2021/11/13 02:31:03;;;;;;;17.00;10.83;;;;;;;5.09;80.54;100425.31;5022206;28;20203;-72
2021/11/13 02:33:31;;;;;;;15.93;10.40;;;;;;;5.12;80.84;100419.88;5023871;28;20215;-71
2021/11/13 02:35:58;;;;;;;17.37;10.83;;;;;;;5.12;80.75;100406.69;5015273;28;20351;-73
2021/11/13 02:38:29;;;;;;;17.20;11.33;;;;;;;5.14;80.73;100415.41;5019542;28;20291;-72
2021/11/13 02:40:58;;;;;;;15.50;10.37;;;;;;;5.14;80.49;100403.06;5022495;28;20202;-74
2021/11/13 02:43:27;;;;;;;17.90;10.87;;;;;;;5.17;80.56;100410.00;5020507;28;20221;-72
2021/11/13 02:45:55;;;;;;;15.23;10.80;;;;;;;5.16;80.44;100409.13;5017365;28;20600;-72
2021/11/13 02:48:23;;;;;;;14.97;9.33;;;;;;;5.19;80.47;100397.59;5025462;28;20210;-72
2021/11/13 02:50:50;;;;;;;12.97;9.50;;;;;;;5.21;80.44;100406.25;5023519;28;20210;-72
2021/11/13 02:53:18;;;;;;;16.97;11.20;;;;;;;5.22;80.22;100398.28;5028262;28;20209;-72
2021/11/13 02:55:47;;;;;;;15.43;10.10;;;;;;;5.23;80.54;100383.28;5025527;28;20233;-72
2021/11/13 02:58:13;;;;;;;15.93;11.30;;;;;;;5.22;80.69;100395.63;5019815;28;20234;-73
2021/11/13 03:00:40;;;;;;;15.73;10.80;;;;;;;5.21;80.74;100411.53;5029791;28;20216;-72
2021/11/13 03:03:07;;;;;;;13.83;9.67;;;;;;;5.22;80.67;100422.03;5026581;28;20210;-76
2021/11/13 03:05:36;;;;;;;17.10;10.37;;;;;;;5.24;80.65;100404.34;5028171;28;20226;-73
2021/11/13 03:08:05;;;;;;;14.33;10.03;;;;;;;5.24;80.45;100400.84;5022480;28;21338;-71
2021/11/13 03:10:35;;;;;;;13.67;9.70;;;;;;;5.23;80.68;100413.19;5025205;28;20209;-72
2021/11/13 03:13:03;;;;;;;15.10;10.00;;;;;;;5.26;80.37;100429.81;5023916;28;20194;-71
2021/11/13 03:15:30;;;;;;;13.80;9.63;;;;;;;5.26;80.04;100433.31;5017968;28;20427;-71
2021/11/13 03:17:58;;;;;;;12.90;9.33;;;;;;;5.27;80.08;100427.13;5028946;28;20202;-72
2021/11/13 03:20:27;;;;;;;14.30;9.67;;;;;;;5.25;80.19;100431.59;5021091;28;20207;-72
2021/11/13 03:22:54;;;;;;;14.43;9.57;;;;;;;5.27;80.27;100423.63;5025602;28;20660;-71
2021/11/13 03:25:23;;;;;;;14.93;9.77;;;;;;;5.25;79.85;100413.13;5025487;28;20610;-72
2021/11/13 03:27:53;;;;;;;15.30;9.83;;;;;;;5.25;80.25;100402.56;5025674;28;20221;-72
2021/11/13 03:30:22;;;;;;;13.93;9.40;;;;;;;5.24;79.89;100400.84;5021196;28;20203;-71
2021/11/13 03:32:50;;;;;;;14.93;10.07;;;;;;;5.24;79.62;100400.84;5015886;28;20607;-71
2021/11/13 03:35:19;;;;;;;16.13;10.37;;;;;;;5.22;79.58;100400.91;5020108;28;20235;-71
2021/11/13 03:37:46;;;;;;;19.50;10.87;;;;;;;5.22;79.66;100405.34;5019638;28;20210;-71
2021/11/13 03:40:13;;;;;;;14.53;9.60;;;;;;;5.21;79.82;100393.06;5017276;28;20203;-71
2021/11/13 03:42:41;;;;;;;14.27;9.73;;;;;;;5.20;79.67;100389.56;5018497;28;20680;-72
2021/11/13 03:45:09;;;;;;;15.73;8.90;;;;;;;5.21;79.79;100398.34;5020491;28;20330;-72
2021/11/13 03:47:38;;;;;;;16.77;10.00;;;;;;;5.23;79.85;100399.13;5049323;22;20828;-82
2021/11/13 03:50:05;;;;;;;13.83;10.47;;;;;;;5.23;79.54;100385.94;5032891;28;20205;-82
2021/11/13 03:52:32;;;;;;;14.57;9.67;;;;;;;5.23;79.40;100389.44;5029425;28;20222;-83
2021/11/13 03:54:59;;;;;;;13.43;9.00;;;;;;;5.24;79.42;100382.38;5031961;28;20205;-82
2021/11/13 03:57:25;;;;;;;13.80;9.90;;;;;;;5.27;79.67;100392.78;5030510;28;20206;-83
2021/11/13 03:59:54;;;;;;;13.23;9.53;;;;;;;5.27;79.92;100384.88;5033832;28;20214;-85
2021/11/13 04:02:20;;;;;;;14.87;10.73;;;;;;;5.27;79.85;100390.16;5027563;28;20308;-85
2021/11/13 04:04:48;;;;;;;14.00;9.70;;;;;;;5.29;79.74;100395.38;5038914;28;20229;-85
2021/11/13 04:07:15;;;;;;;12.47;8.73;;;;;;;5.29;79.67;100393.59;5028843;28;20214;-85
2021/11/13 04:09:42;;;;;;;13.33;9.10;;;;;;;5.28;79.90;100405.06;5034522;28;20210;-84
2021/11/13 04:12:13;;;;;;;13.73;9.63;;;;;;;5.28;80.02;100402.44;5030681;28;20231;-84
2021/11/13 04:14:41;;;;;;;14.37;10.00;;;;;;;5.29;80.04;100408.56;5029942;28;20206;-84
2021/11/13 04:17:08;;;;;;;12.90;8.60;;;;;;;5.32;79.79;100389.94;5037036;28;20213;-84
2021/11/13 04:19:35;;;;;;;12.87;9.33;;;;;;;5.32;79.75;100406.66;5035060;28;20210;-84
2021/11/13 04:22:04;;;;;;;14.27;9.47;;;;;;;5.32;79.87;100395.22;5039687;28;20222;-82
2021/11/13 04:24:31;;;;;;;13.47;10.13;;;;;;;5.32;79.89;100388.16;5026845;28;20222;-82
2021/11/13 04:26:57;;;;;;;14.70;10.67;;;;;;;5.30;79.82;100390.03;5017473;28;20214;-82
2021/11/13 04:29:24;;;;;;;14.83;10.80;;;;;;;5.28;79.91;100394.50;5033142;28;20202;-82
2021/11/13 04:31:51;;;;;;;16.20;10.70;;;;;;;5.24;79.62;100414.91;5030771;28;20597;-82
2021/11/13 04:34:21;;;;;;;13.80;10.23;;;;;;;5.23;79.56;100414.97;5030087;28;20645;-82
2021/11/13 04:36:52;;;;;;;15.23;10.27;;;;;;;5.21;79.58;100406.25;5033683;28;20293;-82
2021/11/13 04:39:21;;;;;;;15.47;10.20;;;;;;;5.19;79.99;100400.22;5027716;28;20210;-83
2021/11/13 04:41:49;;;;;;;14.53;10.60;;;;;;;5.17;79.54;100404.72;5034898;28;20229;-83
2021/11/13 04:44:17;;;;;;;13.40;9.63;;;;;;;5.14;79.62;100399.56;5031991;28;20226;-83
2021/11/13 04:46:44;;;;;;;13.47;9.73;;;;;;;5.11;79.63;100402.34;5032618;28;20225;-82
2021/11/13 04:49:11;;;;;;;12.90;8.87;;;;;;;5.10;79.50;100403.25;5033564;28;20212;-82
2021/11/13 04:51:37;;;;;;;13.27;9.60;;;;;;;5.08;79.86;100400.69;5031383;28;20233;-83
2021/11/13 04:54:04;;;;;;;12.80;8.77;;;;;;;5.08;79.54;100405.97;5032202;28;20202;-83
2021/11/13 04:56:32;;;;;;;13.87;8.60;;;;;;;5.07;79.39;100419.22;5033496;28;20407;-83
2021/11/13 04:58:58;;;;;;;17.37;9.73;;;;;;;5.04;79.45;100414.94;5030604;28;20648;-82
2021/11/13 05:01:25;;;;;;;13.17;9.17;;;;;;;5.03;79.97;100434.34;5025891;28;20212;-82
2021/11/13 05:03:51;;;;;;;12.00;9.00;;;;;;;5.03;79.95;100439.63;5027410;28;20210;-82
2021/11/13 05:06:19;;;;;;;15.63;10.23;;;;;;;4.98;79.45;100448.69;5038329;28;20545;-82
2021/11/13 05:08:45;;;;;;;11.83;9.20;;;;;;;4.94;79.55;100439.19;5035436;28;20725;-82
2021/11/13 05:11:12;;;;;;;13.87;9.70;;;;;;;4.92;79.99;100435.75;5036661;28;20210;-82
2021/11/13 05:13:40;;;;;;;14.97;10.57;;;;;;;4.89;79.90;100429.66;5031361;28;20206;-82
2021/11/13 05:16:06;;;;;;;13.87;9.80;;;;;;;4.86;79.87;100429.78;5035448;28;20212;-84
2021/11/13 05:18:33;;;;;;;15.27;10.53;;;;;;;4.84;80.17;100434.28;5028360;28;20206;-83
2021/11/13 05:20:59;;;;;;;13.90;9.70;;;;;;;4.82;80.55;100437.94;5033989;28;20207;-83
2021/11/13 05:23:26;;;;;;;13.77;9.67;;;;;;;4.83;80.37;100437.88;5030703;28;20229;-84
2021/11/13 05:25:52;;;;;;;15.43;10.63;;;;;;;4.84;80.93;100447.47;5029631;28;20416;-83
2021/11/13 05:28:19;;;;;;;14.57;9.50;;;;;;;4.85;80.96;100441.28;5036870;28;20210;-82
2021/11/13 05:30:47;;;;;;;12.13;9.30;;;;;;;4.86;80.65;100435.06;5034972;28;20198;-84
2021/11/13 05:33:13;;;;;;;14.93;9.67;;;;;;;4.88;80.64;100433.22;5035291;28;20586;-84
2021/11/13 05:35:40;;;;;;;16.30;9.97;;;;;;;4.91;80.91;100436.66;5033751;28;20198;-84
2021/11/13 05:38:07;;;;;;;14.97;10.33;;;;;;;4.92;81.08;100441.88;5027489;28;20208;-84
2021/11/13 05:40:33;;;;;;;12.90;9.47;;;;;;;4.92;80.85;100446.28;5032107;28;20202;-84
2021/11/13 05:43:00;;;;;;;14.27;10.43;;;;;;;4.89;81.03;100457.84;5032726;28;20233;-84
2021/11/13 05:45:27;;;;;;;14.30;10.03;;;;;;;4.92;81.02;100455.06;5032822;28;20226;-83
2021/11/13 05:47:55;;;;;;;15.53;10.37;;;;;;;4.92;81.19;100460.34;5033384;28;20210;-84
2021/11/13 05:50:21;;;;;;;13.27;9.87;;;;;;;4.92;81.02;100465.63;5032047;28;20206;-82
2021/11/13 05:52:50;;;;;;;14.90;10.17;;;;;;;4.93;81.21;100463.84;5040837;28;20221;-82
2021/11/13 05:55:17;;;;;;;15.73;10.83;;;;;;;4.92;81.17;100462.13;5036032;28;20202;-81
2021/11/13 05:57:44;;;;;;;13.37;9.70;;;;;;;4.94;81.19;100455.88;5029966;28;20211;-83
2021/11/13 06:00:14;;;;;;;16.40;9.73;;;;;;;4.94;81.13;100449.72;5028045;28;20206;-84
2021/11/13 06:02:41;;;;;;;14.40;9.87;;;;;;;4.92;81.21;100441.03;5026750;28;20230;-84
2021/11/13 06:05:10;;;;;;;12.83;9.30;;;;;;;4.91;81.38;100431.38;5030944;28;20229;-84
2021/11/13 06:07:37;;;;;;;16.30;10.30;;;;;;;4.92;80.98;100428.69;5028269;28;20215;-83
2021/11/13 06:10:04;;;;;;;13.17;8.93;;;;;;;4.92;81.00;100430.47;5031708;28;20691;-84
2021/11/13 06:12:31;;;;;;;12.13;8.40;;;;;;;4.93;80.97;100424.25;5026442;28;20701;-83
2021/11/13 06:14:58;;;;;;;12.67;9.00;;;;;;;4.93;81.05;100437.47;5027256;28;20677;-83
2021/11/13 06:17:24;;;;;;;13.37;8.60;;;;;;;4.94;80.38;100425.97;5029120;28;20214;-83
2021/11/13 06:19:51;;;;;;;12.73;8.87;;;;;;;4.95;80.62;100432.97;5024785;28;20214;-84
2021/11/13 06:22:19;;;;;;;12.83;8.90;;;;;;;4.96;80.82;100432.06;5026458;28;20226;-83
2021/11/13 06:24:45;;;;;;;15.13;10.50;;;;;;;4.96;80.55;100437.31;5030491;28;20229;-84
2021/11/13 06:27:14;;;;;;;15.40;10.60;;;;;;;4.95;80.65;100440.88;5025934;28;20206;-84
2021/11/13 06:29:41;;;;;;;13.87;9.70;;;;;;;4.97;80.94;100445.19;5030475;28;20505;-84
2021/11/13 06:32:08;;;;;;;13.67;9.80;;;;;;;4.99;81.04;100445.97;5030962;28;20222;-83
2021/11/13 06:34:35;;;;;;;15.73;10.20;;;;;;;5.00;81.06;100457.41;5030311;28;20652;-82
2021/11/13 06:37:01;;;;;;;14.93;10.23;;;;;;;5.01;80.85;100462.59;5030322;28;20206;-83
2021/11/13 06:39:29;;;;;;;14.57;10.03;;;;;;;5.04;80.78;100462.44;5028532;28;20206;-84
2021/11/13 06:41:56;;;;;;;13.73;10.03;;;;;;;5.06;80.75;100467.66;5031758;28;20229;-85
2021/11/13 06:44:22;;;;;;;16.10;10.87;;;;;;;5.09;80.89;100472.81;5028233;28;20210;-84
2021/11/13 06:46:49;;;;;;;14.23;9.80;;;;;;;5.10;81.05;100471.88;5027645;28;20234;-83
2021/11/13 06:49:15;;;;;;;15.10;10.70;;;;;;;5.11;80.93;100474.47;5034141;28;20581;-84
2021/11/13 06:51:42;;;;;;;15.70;10.27;;;;;;;5.12;80.55;100473.53;5031293;28;20231;-84
2021/11/13 06:54:09;;;;;;;15.23;10.20;;;;;;;5.14;81.19;100470.84;5035245;28;20198;-83
2021/11/13 06:56:37;;;;;;;14.67;11.30;;;;;;;5.14;80.97;100486.69;5035321;28;20201;-83
2021/11/13 06:59:03;;;;;;;16.43;10.83;;;;;;;5.14;81.11;100484.91;5036016;28;20203;-84
2021/11/13 07:01:30;;;;;;;17.70;11.57;;;;;;;5.16;81.14;100479.56;5045594;28;20226;-83
2021/11/13 07:03:57;;;;;;;15.67;11.07;;;;;;;5.15;81.42;100483.97;5048632;28;20207;-83
2021/11/13 07:06:23;;;;;;;18.67;10.93;;;;;;;5.15;81.48;100488.41;5033206;28;20222;-82
2021/11/13 07:08:50;;;;;;;16.40;9.97;;;;;;;5.15;81.32;100488.41;5051214;28;20216;-82
2021/11/13 07:11:16;;;;;;;16.67;10.80;;;;;;;5.14;81.83;100474.34;5038494;28;20208;-82
2021/11/13 07:13:44;;;;;;;15.93;10.83;;;;;;;5.10;81.81;100472.75;5034633;28;20206;-82
2021/11/13 07:16:10;;;;;;;17.33;10.67;;;;;;;5.09;81.73;100478.09;5040616;28;20200;-83
2021/11/13 07:18:37;;;;;;;16.53;10.47;;;;;;;5.07;82.00;100480.78;5036101;28;20211;-82
2021/11/13 07:21:06;;;;;;;14.93;10.57;;;;;;;5.06;81.95;100472.94;5026028;28;20211;-83
2021/11/13 07:23:34;;;;;;;14.07;10.40;;;;;;;5.05;82.46;100479.13;5030272;28;20245;-81
2021/11/13 07:26:02;;;;;;;14.47;11.53;;;;;;;5.02;82.19;100489.81;5032007;28;20234;-81
2021/11/13 07:28:36;;;;;;;14.80;10.83;;;;;;;5.00;82.58;100497.84;5035195;28;20574;-82
2021/11/13 07:31:04;;;;;;;15.03;11.10;;;;;;;4.99;82.83;100500.53;5027027;28;20209;-82
2021/11/13 07:33:31;;;;;;;16.87;11.63;;;;;;;4.95;82.98;100504.22;5030752;28;20222;-82
2021/11/13 07:35:57;;;;;;;18.30;11.80;;;;;;;4.94;83.30;100507.78;5033836;28;20714;-80
2021/11/13 07:38:24;;;;;;;17.90;11.70;;;;;;;4.93;83.31;100503.44;5034915;28;20669;-80
2021/11/13 07:40:50;;;;;;;16.93;11.23;;;;;;;4.94;83.59;100513.94;5030978;28;20211;-81
2021/11/13 07:43:17;;;;;;;21.17;12.40;;;;;;;4.95;83.38;100520.06;5035929;28;20600;-83
2021/11/13 07:45:44;;;;;;;18.73;12.33;;;;;;;4.98;83.35;100523.44;5012832;28;20226;-82
2021/11/13 07:48:12;;;;;;;15.63;11.43;;;;;;;4.99;83.93;100527.78;5030311;28;20629;-82
2021/11/13 07:50:39;;;;;;;19.30;12.20;;;;;;;5.02;84.12;100532.06;5032957;28;20217;-82
2021/11/13 07:53:07;;;;;;;16.50;11.87;;;;;;;5.05;84.25;100531.94;5030721;28;20219;-81
2021/11/13 07:55:34;;;;;;;17.83;11.70;;;;;;;5.11;84.67;100529.91;5033934;28;20202;-81
2021/11/13 07:58:01;;;;;;;17.67;10.97;;;;;;;5.14;84.76;100524.50;5040059;28;20205;-81
2021/11/13 08:00:28;;;;;;;18.40;11.33;;;;;;;5.17;84.81;100520.88;5037150;28;20209;-82
2021/11/13 08:02:55;;;;;;;15.70;11.07;;;;;;;5.22;85.30;100525.00;5030880;28;20217;-82
2021/11/13 08:05:24;;;;;;;19.57;11.80;;;;;;;5.27;85.11;100518.69;5029672;28;20226;-83
2021/11/13 08:07:51;;;;;;;17.60;10.50;;;;;;;5.29;85.52;100522.97;5029810;28;20206;-84
2021/11/13 08:10:19;;;;;;;17.10;10.83;;;;;;;5.32;85.42;100522.84;5035096;28;20202;-83
2021/11/13 08:12:47;;;;;;;15.63;10.00;;;;;;;5.34;85.84;100515.72;5037675;28;20225;-84
2021/11/13 08:15:15;;;;;;;15.23;11.47;;;;;;;5.36;85.59;100519.16;5035395;28;20253;-84
2021/11/13 08:17:42;;;;;;;15.10;10.03;;;;;;;5.39;85.88;100520.75;5029444;28;20206;-84
2021/11/13 08:20:11;;;;;;;15.73;11.37;;;;;;;5.40;85.38;100519.84;5035521;28;20206;-82
2021/11/13 08:22:41;;;;;;;16.60;11.00;;;;;;;5.41;85.99;100514.50;5029615;28;20238;-81
2021/11/13 08:25:10;;;;;;;16.50;11.10;;;;;;;5.44;85.93;100508.22;5032780;28;20211;-82
2021/11/13 08:27:37;;;;;;;14.47;9.70;;;;;;;5.45;85.67;100517.88;5032805;28;20228;-84
2021/11/13 08:30:05;;;;;;;15.50;10.47;;;;;;;5.45;86.24;100521.38;5033128;28;20202;-83
2021/11/13 08:32:32;;;;;;;14.50;10.73;;;;;;;5.48;86.00;100525.66;5033943;28;20608;-82
2021/11/13 08:34:58;;;;;;;13.10;9.83;;;;;;;5.49;86.04;100522.94;5034512;28;20198;-83
2021/11/13 08:37:25;;;;;;;15.27;11.30;;;;;;;5.50;86.13;100522.03;5032719;28;20326;-82
2021/11/13 08:39:53;;;;;;;15.07;10.33;;;;;;;5.51;86.17;100526.38;5036259;28;20212;-83
2021/11/13 08:42:20;;;;;;;16.20;10.80;;;;;;;5.52;86.51;100528.09;5035446;28;20731;-80
2021/11/13 08:44:49;;;;;;;15.90;10.97;;;;;;;5.53;86.46;100529.81;5031629;28;20568;-78
2021/11/13 08:47:16;;;;;;;15.17;10.90;;;;;;;5.55;86.60;100537.69;5028063;28;20222;-83
2021/11/13 08:49:46;;;;;;;13.40;9.30;;;;;;;5.57;86.66;100520.81;5035452;28;20202;-80
2021/11/13 08:52:16;;;;;;;15.00;10.47;;;;;;;5.61;86.96;100520.69;5040914;28;20222;-80
2021/11/13 08:54:43;;;;;;;14.70;11.07;;;;;;;5.62;86.77;100527.69;5039364;28;20260;-83
2021/11/13 08:57:11;;;;;;;12.87;9.77;;;;;;;5.63;86.70;100524.97;5036700;28;20297;-82
2021/11/13 08:59:38;;;;;;;15.40;10.30;;;;;;;5.64;86.80;100526.69;5034563;28;20214;-83
2021/11/13 09:02:09;;;;;;;15.87;10.57;;;;;;;5.67;86.84;100523.06;5034304;28;20245;-83
2021/11/13 09:04:36;;;;;;;15.80;10.87;;;;;;;5.69;86.67;100523.84;5033164;28;20629;-82
2021/11/13 09:07:03;;;;;;;15.63;10.00;;;;;;;5.70;86.79;100521.13;5030178;28;20229;-83
2021/11/13 09:09:30;;;;;;;15.93;10.70;;;;;;;5.72;86.95;100529.84;5037264;28;20210;-83
2021/11/13 09:12:00;;;;;;;17.67;11.43;;;;;;;5.75;86.72;100529.69;5036010;28;20232;-84
2021/11/13 09:14:29;;;;;;;17.47;12.03;;;;;;;5.77;87.06;100533.13;5040458;28;20652;-83
2021/11/13 09:16:55;;;;;;;14.60;10.23;;;;;;;5.79;86.82;100525.13;5037174;28;20230;-82
2021/11/13 09:19:22;;;;;;;15.13;10.73;;;;;;;5.81;86.69;100523.28;5038833;28;20202;-83
2021/11/13 09:21:51;;;;;;;16.03;10.97;;;;;;;5.84;86.88;100525.78;5047222;28;20234;-84
2021/11/13 09:24:18;;;;;;;18.83;11.77;;;;;;;5.85;86.67;100524.88;5041776;28;20591;-82
2021/11/13 09:26:44;;;;;;;12.73;8.87;;;;;;;5.87;86.70;100520.38;5026139;28;20241;-83
2021/11/13 09:29:11;;;;;;;16.47;10.23;;;;;;;5.89;86.64;100522.03;5039202;28;20210;-83
2021/11/13 09:31:41;;;;;;;17.30;10.37;;;;;;;5.95;86.42;100514.75;5028858;28;20230;-85
2021/11/13 09:34:08;;;;;;;26.23;10.80;;;;;;;5.96;86.32;100527.03;5033813;28;20199;-84
2021/11/13 09:36:35;;;;;;;13.70;10.30;;;;;;;5.97;86.69;100529.59;5041963;28;20212;-83
2021/11/13 09:39:01;;;;;;;13.10;9.83;;;;;;;5.99;86.17;100527.75;5034200;28;20637;-81
2021/11/13 09:41:28;;;;;;;15.33;9.80;;;;;;;6.04;86.12;100535.47;5034150;28;20684;-82
2021/11/13 09:43:55;;;;;;;16.97;11.37;;;;;;;6.05;86.19;100537.19;5034623;28;20579;-81
2021/11/13 09:46:21;;;;;;;16.00;11.30;;;;;;;6.07;86.26;100541.50;5033428;28;20617;-83
2021/11/13 09:48:52;;;;;;;13.33;9.97;;;;;;;6.12;86.33;100535.97;5034247;28;20202;-84
2021/11/13 09:51:19;;;;;;;16.20;10.70;;;;;;;6.17;86.21;100529.53;5032208;28;20252;-84
2021/11/13 09:53:46;;;;;;;16.40;11.30;;;;;;;6.26;86.40;100536.19;5035350;28;20707;-84
2021/11/13 09:56:13;;;;;;;16.23;10.47;;;;;;;6.32;86.10;100537.66;5040175;28;20569;-82
2021/11/13 09:58:40;;;;;;;16.97;11.33;;;;;;;6.39;86.24;100539.97;5036720;28;20214;-83
2021/11/13 10:01:07;;;;;;;17.53;11.53;;;;;;;6.46;86.35;100537.84;5034171;28;20202;-83
2021/11/13 10:03:34;;;;;;;15.37;10.87;;;;;;;6.52;86.05;100533.13;5039613;28;20261;-83
2021/11/13 10:06:05;;;;;;;17.60;11.03;;;;;;;6.57;85.92;100546.16;5037778;28;20290;-83
2021/11/13 10:08:32;;;;;;;14.03;10.80;;;;;;;6.63;86.17;100550.31;5034236;28;20206;-84
2021/11/13 10:11:01;;;;;;;15.73;10.77;;;;;;;6.66;85.54;100545.69;5037584;28;20213;-83
2021/11/13 10:13:31;;;;;;;13.80;10.20;;;;;;;6.71;86.00;100542.81;5036509;28;20233;-83
2021/11/13 10:16:00;;;;;;;12.10;9.53;;;;;;;6.75;85.69;100547.91;5029059;28;20199;-82
2021/11/13 10:18:29;;;;;;;14.73;9.93;;;;;;;6.77;85.46;100548.69;5023971;28;20203;-81
2021/11/13 10:21:06;;;;;;;14.53;10.33;;;;;;;6.81;85.57;100544.94;5040011;28;20214;-83
2021/11/13 10:23:43;;;;;;;14.03;10.30;;;;;;;6.83;84.93;100537.78;5041892;28;20226;-84
2021/11/13 10:26:14;;;;;;;17.70;10.57;;;;;;;6.87;85.30;100551.72;5034269;28;20221;-82
2021/11/13 10:28:45;;;;;;;13.13;9.33;;;;;;;6.90;84.88;100549.78;5030926;28;20206;-83
2021/11/13 10:31:15;;;;;;;13.33;9.40;;;;;;;6.89;84.63;100553.38;5036671;28;20212;-86
2021/11/13 10:33:43;;;;;;;13.43;9.10;;;;;;;6.94;84.02;100547.84;5033997;28;20202;-86
2021/11/13 10:36:11;;;;;;;15.30;10.37;;;;;;;6.95;83.88;100553.06;5041264;28;20198;-86
2021/11/13 10:38:41;;;;;;;15.50;10.73;;;;;;;6.97;84.28;100545.91;5038084;28;20211;-84
2021/11/13 10:41:11;;;;;;;17.63;11.40;;;;;;;7.00;84.57;100547.53;5040355;28;20209;-84
2021/11/13 10:43:40;;;;;;;16.03;11.20;;;;;;;7.03;84.03;100550.03;5034503;28;20202;-83
2021/11/13 10:46:10;;;;;;;15.20;10.80;;;;;;;7.06;84.13;100551.66;5028743;28;20692;-84
2021/11/13 10:48:39;;;;;;;13.30;10.03;;;;;;;7.08;83.80;100552.44;5043197;28;20202;-84
2021/11/13 10:51:12;;;;;;;17.40;10.87;;;;;;;7.07;83.26;100548.09;5040583;28;20208;-85
2021/11/13 10:53:41;;;;;;;14.07;9.80;;;;;;;7.07;83.65;100548.94;5035374;28;20286;-85
2021/11/13 10:56:12;;;;;;;15.90;10.53;;;;;;;7.10;83.14;100555.88;5036036;28;20204;-85
2021/11/13 10:58:41;;;;;;;13.67;9.70;;;;;;;7.13;84.11;100550.44;5030892;28;20647;-85
2021/11/13 11:01:10;;;;;;;12.77;10.37;;;;;;;7.13;83.79;100550.44;5037435;28;20202;-84
2021/11/13 11:03:38;;;;;;;12.80;9.57;;;;;;;7.14;83.42;100546.84;5037550;28;21000;-85
2021/11/13 11:06:07;;;;;;;12.83;9.70;;;;;;;7.14;83.22;100544.19;5017295;28;20226;-84
2021/11/13 11:08:37;;;;;;;13.77;8.77;;;;;;;7.14;83.36;100545.06;5038613;28;20209;-84
2021/11/13 11:11:25;;;;;;;13.40;9.33;;;;;;;7.13;82.66;100545.13;5041058;28;20649;-84
2021/11/13 11:13:53;;;;;;;13.97;9.20;;;;;;;7.14;83.38;100553.00;5041469;28;20804;-84
2021/11/13 11:16:26;;;;;;;14.10;9.90;;;;;;;7.16;82.84;100555.56;5043719;28;20210;-84
2021/11/13 11:18:54;;;;;;;13.80;10.17;;;;;;;7.16;83.00;100561.72;5038456;28;20206;-84
2021/11/13 11:21:39;;;;;;;14.70;9.33;;;;;;;7.18;82.15;100556.31;5036544;28;20583;-85